createdAt,value
2018-05-29T00:02:14.200Z,35.57
2018-05-29T00:04:43.054Z,36.40
2018-05-29T00:07:11.899Z,36.47
2018-05-29T00:09:40.765Z,36.87
2018-05-29T00:12:09.600Z,37.93
2018-05-29T00:14:38.453Z,36.10
2018-05-29T00:17:07.298Z,35.37
2018-05-29T00:19:36.185Z,36.93
2018-05-29T00:22:05.039Z,37.23
2018-05-29T00:24:33.879Z,36.40
2018-05-29T00:27:02.719Z,36.93
2018-05-29T00:29:31.595Z,37.23
2018-05-29T00:32:00.434Z,37.27
2018-05-29T00:34:29.273Z,37.37
2018-05-29T00:36:58.150Z,37.63
2018-05-29T00:39:27.005Z,36.83
2018-05-29T00:41:55.841Z,36.17
2018-05-29T00:44:24.687Z,38.10
2018-05-29T00:46:53.538Z,38.57
2018-05-29T00:49:22.381Z,37.73
2018-05-29T00:51:51.248Z,38.50
2018-05-29T00:54:20.110Z,39.70
2018-05-29T00:56:48.963Z,39.20
2018-05-29T00:59:17.799Z,40.27
2018-05-29T01:01:46.669Z,45.10
2018-05-29T01:04:15.538Z,42.13
2018-05-29T01:06:44.349Z,42.50
2018-05-29T01:09:13.246Z,45.33
2018-05-29T01:11:42.076Z,41.17
2018-05-29T01:14:10.936Z,41.13
2018-05-29T01:16:39.771Z,41.33
2018-05-29T01:19:08.620Z,42.83
2018-05-29T01:21:37.477Z,41.00
2018-05-29T01:24:06.367Z,43.63
2018-05-29T01:26:35.200Z,43.23
2018-05-29T01:29:04.059Z,42.47
2018-05-29T01:31:32.877Z,41.90
2018-05-29T01:34:01.733Z,43.13
2018-05-29T01:36:30.552Z,43.93
2018-05-29T01:38:59.409Z,42.63
2018-05-29T01:41:28.253Z,43.10
2018-05-29T01:43:57.109Z,44.13
2018-05-29T01:46:25.968Z,42.10
2018-05-29T01:48:54.785Z,43.10
2018-05-29T01:51:23.642Z,49.65
2018-05-29T01:53:52.487Z,45.83
2018-05-29T01:56:21.349Z,51.10
2018-05-29T01:58:50.187Z,44.73
2018-05-29T02:01:19.158Z,44.43
2018-05-29T02:03:47.924Z,45.53
2018-05-29T02:06:16.779Z,45.83
2018-05-29T02:08:45.601Z,45.77
2018-05-29T02:11:14.463Z,45.47
2018-05-29T02:13:43.296Z,46.03
2018-05-29T02:16:12.167Z,47.23
2018-05-29T02:18:41.023Z,45.70
2018-05-29T02:21:09.881Z,47.30
2018-05-29T02:23:38.739Z,48.10
2018-05-29T02:26:07.646Z,48.73
2018-05-29T02:28:36.533Z,49.83
2018-05-29T02:31:05.389Z,50.17
2018-05-29T02:33:34.238Z,51.80
2018-05-29T02:36:03.110Z,50.97
2018-05-29T02:38:31.977Z,51.37
2018-05-29T02:41:00.846Z,52.77
2018-05-29T02:43:29.693Z,52.30
2018-05-29T02:45:58.542Z,53.07
2018-05-29T02:48:27.416Z,54.80
2018-05-29T02:50:56.243Z,61.80
2018-05-29T02:53:25.097Z,54.57
2018-05-29T02:55:53.949Z,55.20
2018-05-29T02:58:22.813Z,62.13
2018-05-29T03:00:51.678Z,55.43
2018-05-29T03:03:20.539Z,54.80
2018-05-29T03:05:49.383Z,67.65
2018-05-29T03:08:18.225Z,55.47
2018-05-29T03:10:47.070Z,56.23
2018-05-29T03:13:16.043Z,54.07
2018-05-29T03:15:44.897Z,57.43
2018-05-29T03:18:13.753Z,56.93
2018-05-29T03:20:42.595Z,60.70
2018-05-29T03:23:11.499Z,62.40
2018-05-29T03:25:40.371Z,60.77
2018-05-29T03:28:09.188Z,63.63
2018-05-29T03:30:38.065Z,70.35
2018-05-29T03:33:06.886Z,71.33
2018-05-29T03:35:35.746Z,63.27
2018-05-29T03:38:04.597Z,63.57
2018-05-29T03:40:33.442Z,65.40
2018-05-29T03:43:02.321Z,64.47
2018-05-29T03:45:31.204Z,65.33
2018-05-29T03:48:00.059Z,64.20
2018-05-29T03:50:28.899Z,64.70
2018-05-29T03:52:57.725Z,66.23
2018-05-29T03:55:26.572Z,66.40
2018-05-29T03:57:55.378Z,67.40
2018-05-29T04:00:24.245Z,67.50
2018-05-29T04:02:53.061Z,68.67
2018-05-29T04:05:21.914Z,81.45
2018-05-29T04:07:50.792Z,71.10
2018-05-29T04:10:19.607Z,68.93
2018-05-29T04:12:48.492Z,71.87
2018-05-29T04:15:17.328Z,69.63
2018-05-29T04:17:46.172Z,70.00
2018-05-29T04:20:15.041Z,70.43
2018-05-29T04:22:43.901Z,73.07
2018-05-29T04:25:12.731Z,70.27
2018-05-29T04:27:41.595Z,71.07
2018-05-29T04:30:10.437Z,81.28
2018-05-29T04:32:39.301Z,71.77
2018-05-29T04:35:08.143Z,71.07
2018-05-29T04:37:36.963Z,73.23
2018-05-29T04:40:05.810Z,71.47
2018-05-29T04:42:34.664Z,69.47
2018-05-29T04:45:03.547Z,73.17
2018-05-29T04:47:32.377Z,73.73
2018-05-29T04:50:01.227Z,83.70
2018-05-29T04:52:30.083Z,72.47
2018-05-29T04:54:58.929Z,73.97
2018-05-29T04:57:27.801Z,71.67
2018-05-29T04:59:56.640Z,84.77
2018-05-29T05:02:25.498Z,74.83
2018-05-29T05:04:54.460Z,70.67
2018-05-29T05:07:23.338Z,73.03
2018-05-29T05:09:52.157Z,74.07
2018-05-29T05:12:21.044Z,71.47
2018-05-29T05:14:49.872Z,72.37
2018-05-29T05:17:18.743Z,73.30
2018-05-29T05:19:47.588Z,71.67
2018-05-29T05:22:16.524Z,74.17
2018-05-29T05:24:45.362Z,72.80
2018-05-29T05:27:14.191Z,71.37
2018-05-29T05:29:43.056Z,72.90
2018-05-29T05:32:11.912Z,83.25
2018-05-29T05:34:40.780Z,70.47
2018-05-29T05:37:09.622Z,70.90
2018-05-29T05:39:38.483Z,69.43
2018-05-29T05:42:07.320Z,74.50
2018-05-29T05:44:36.181Z,69.43
2018-05-29T05:47:05.091Z,72.07
2018-05-29T05:49:33.873Z,69.47
2018-05-29T05:52:02.721Z,70.60
2018-05-29T05:54:31.561Z,69.23
2018-05-29T05:57:00.406Z,69.13
2018-05-29T05:59:29.242Z,69.73
2018-05-29T06:01:58.102Z,69.13
2018-05-29T06:04:26.938Z,70.17
2018-05-29T06:06:56.985Z,67.93
2018-05-29T06:09:25.868Z,75.25
2018-05-29T06:11:54.717Z,65.90
2018-05-29T06:14:23.579Z,65.57
2018-05-29T06:16:52.444Z,65.67
2018-05-29T06:19:21.289Z,63.17
2018-05-29T06:21:50.177Z,63.60
2018-05-29T06:24:19.051Z,59.18
2018-05-29T06:26:47.846Z,56.58
2018-05-29T06:29:16.691Z,56.90
2018-05-29T06:31:45.525Z,53.98
2018-05-29T06:34:14.370Z,51.85
2018-05-29T06:36:43.251Z,50.52
2018-05-29T06:39:12.129Z,51.30
2018-05-29T06:41:40.965Z,48.02
2018-05-29T06:44:09.824Z,52.90
2018-05-29T06:46:38.657Z,49.85
2018-05-29T06:49:07.495Z,50.55
2018-05-29T06:51:36.385Z,47.40
2018-05-29T06:54:05.257Z,54.50
2018-05-29T06:56:34.146Z,56.57
2018-05-29T06:59:03.233Z,49.67
2018-05-29T07:01:32.063Z,47.08
2018-05-29T07:04:01.030Z,47.03
2018-05-29T07:06:29.832Z,49.50
2018-05-29T07:08:58.698Z,49.73
2018-05-29T07:11:27.521Z,48.78
2018-05-29T07:13:56.380Z,47.85
2018-05-29T07:16:25.220Z,45.78
2018-05-29T07:18:54.079Z,46.35
2018-05-29T07:21:22.921Z,47.93
2018-05-29T07:23:51.769Z,45.78
2018-05-29T07:26:20.601Z,41.95
2018-05-29T07:28:49.474Z,42.33
2018-05-29T07:31:18.352Z,44.65
2018-05-29T07:33:47.205Z,47.93
2018-05-29T07:36:16.053Z,42.27
2018-05-29T07:38:44.938Z,43.75
2018-05-29T07:41:13.818Z,43.98
2018-05-29T07:43:42.705Z,42.65
2018-05-29T07:46:11.536Z,43.68
2018-05-29T07:48:40.397Z,40.48
2018-05-29T07:51:09.268Z,42.53
2018-05-29T07:53:38.187Z,37.03
2018-05-29T07:56:07.027Z,38.13
2018-05-29T07:58:35.867Z,38.25
2018-05-29T08:01:04.729Z,42.85
2018-05-29T08:03:33.621Z,37.50
2018-05-29T08:06:02.480Z,44.95
2018-05-29T08:08:31.324Z,36.80
2018-05-29T08:11:00.184Z,41.25
2018-05-29T08:13:29.033Z,39.63
2018-05-29T08:15:57.867Z,36.25
2018-05-29T08:18:26.749Z,35.13
2018-05-29T08:20:55.562Z,39.63
2018-05-29T08:23:24.500Z,40.98
2018-05-29T08:25:53.355Z,34.55
2018-05-29T08:28:22.206Z,36.38
2018-05-29T08:30:51.032Z,29.72
2018-05-29T08:33:19.891Z,32.93
2018-05-29T08:35:48.731Z,31.75
2018-05-29T08:38:17.823Z,34.75
2018-05-29T08:40:46.682Z,27.45
2018-05-29T08:43:15.582Z,30.80
2018-05-29T08:45:44.444Z,31.25
2018-05-29T08:48:13.262Z,32.67
2018-05-29T08:50:42.144Z,28.60
2018-05-29T08:53:11.144Z,29.80
2018-05-29T08:55:40.023Z,30.68
2018-05-29T08:58:08.919Z,30.45
2018-05-29T09:00:37.772Z,33.88
2018-05-29T09:03:06.611Z,29.80
2018-05-29T09:05:35.468Z,32.17
2018-05-29T09:08:04.383Z,30.05
2018-05-29T09:10:33.262Z,31.25
2018-05-29T09:13:02.154Z,30.20
2018-05-29T09:15:31.046Z,25.48
2018-05-29T09:17:59.918Z,26.65
2018-05-29T09:20:28.747Z,27.35
2018-05-29T09:22:57.573Z,27.22
2018-05-29T09:25:26.411Z,23.55
2018-05-29T09:27:55.397Z,27.07
2018-05-29T09:30:24.174Z,23.70
2018-05-29T09:32:53.084Z,20.50
2018-05-29T09:35:21.943Z,23.22
2018-05-29T09:37:50.860Z,23.95
2018-05-29T09:40:19.795Z,19.52
2018-05-29T09:42:48.642Z,21.60
2018-05-29T09:45:17.526Z,23.22
2018-05-29T09:47:46.412Z,20.90
2018-05-29T09:50:15.296Z,23.85
2018-05-29T09:52:44.177Z,21.95
2018-05-29T09:55:13.032Z,21.00
2018-05-29T09:57:41.876Z,22.70
2018-05-29T10:00:10.746Z,22.37
2018-05-29T10:02:39.604Z,19.02
2018-05-29T10:05:09.301Z,25.48
2018-05-29T10:07:38.169Z,20.35
2018-05-29T10:10:07.054Z,21.90
2018-05-29T10:12:35.929Z,24.80
2018-05-29T10:15:04.853Z,20.40
2018-05-29T10:17:33.703Z,20.57
2018-05-29T10:20:02.547Z,19.48
2018-05-29T10:22:31.435Z,17.52
2018-05-29T10:25:00.312Z,17.15
2018-05-29T10:27:29.152Z,15.78
2018-05-29T10:29:58.244Z,14.98
2018-05-29T10:32:27.083Z,15.55
2018-05-29T10:34:55.962Z,14.00
2018-05-29T10:37:24.828Z,16.30
2018-05-29T10:39:53.686Z,16.15
2018-05-29T10:42:22.545Z,15.68
2018-05-29T10:44:51.415Z,14.95
2018-05-29T10:47:20.281Z,16.90
2018-05-29T10:49:49.110Z,16.57
2018-05-29T10:52:17.988Z,15.88
2018-05-29T10:54:46.977Z,14.85
2018-05-29T10:57:15.776Z,15.35
2018-05-29T10:59:44.644Z,14.80
2018-05-29T11:02:13.541Z,15.18
2018-05-29T11:04:42.364Z,14.25
2018-05-29T11:07:11.290Z,15.30
2018-05-29T11:09:40.154Z,14.73
2018-05-29T11:12:08.997Z,15.28
2018-05-29T11:14:37.889Z,13.70
2018-05-29T11:17:06.797Z,13.65
2018-05-29T11:19:35.637Z,13.10
2018-05-29T11:22:04.496Z,14.18
2018-05-29T11:24:33.336Z,12.98
2018-05-29T11:27:02.202Z,14.07
2018-05-29T11:29:31.031Z,14.13
2018-05-29T11:31:59.905Z,13.15
2018-05-29T11:34:28.739Z,13.68
2018-05-29T11:36:57.585Z,13.40
2018-05-29T11:39:26.463Z,14.33
2018-05-29T11:41:55.357Z,14.25
2018-05-29T11:44:24.231Z,13.70
2018-05-29T11:46:53.163Z,13.43
2018-05-29T11:49:22.012Z,13.38
2018-05-29T11:51:50.852Z,14.03
2018-05-29T11:54:19.686Z,13.28
2018-05-29T11:56:48.505Z,13.85
2018-05-29T11:59:17.378Z,12.88
2018-05-29T12:01:46.233Z,14.60
2018-05-29T12:04:15.063Z,14.68
2018-05-29T12:06:43.955Z,13.45
2018-05-29T12:09:12.808Z,14.23
2018-05-29T12:11:41.715Z,13.43
2018-05-29T12:14:10.689Z,13.48
2018-05-29T12:16:39.544Z,13.00
2018-05-29T12:19:08.382Z,13.43
2018-05-29T12:21:37.237Z,13.40
2018-05-29T12:24:06.090Z,12.28
2018-05-29T12:26:34.949Z,13.43
2018-05-29T12:29:04.544Z,12.30
2018-05-29T12:31:33.496Z,12.25
2018-05-29T12:34:02.341Z,14.18
2018-05-29T12:36:31.230Z,12.03
2018-05-29T12:39:00.087Z,13.40
2018-05-29T12:41:28.926Z,13.55
2018-05-29T12:43:57.794Z,13.30
2018-05-29T12:46:26.735Z,12.53
2018-05-29T12:48:55.553Z,12.60
2018-05-29T12:51:24.388Z,12.23
2018-05-29T12:53:53.253Z,12.78
2018-05-29T12:56:22.176Z,12.45
2018-05-29T12:58:51.022Z,12.40
2018-05-29T13:01:19.870Z,12.60
2018-05-29T13:03:48.765Z,12.23
2018-05-29T13:06:17.707Z,13.32
2018-05-29T13:08:46.615Z,12.37
2018-05-29T13:11:15.537Z,12.85
2018-05-29T13:13:44.378Z,12.68
2018-05-29T13:16:13.209Z,13.22
2018-05-29T13:18:42.075Z,13.32
2018-05-29T13:21:10.947Z,12.50
2018-05-29T13:23:39.831Z,12.40
2018-05-29T13:26:08.660Z,12.58
2018-05-29T13:28:37.520Z,12.98
2018-05-29T13:31:06.409Z,12.80
2018-05-29T13:33:35.235Z,11.80
2018-05-29T13:36:04.112Z,13.08
2018-05-29T13:38:32.987Z,12.23
2018-05-29T13:41:01.879Z,13.25
2018-05-29T13:43:30.784Z,12.03
2018-05-29T13:45:59.664Z,13.00
2018-05-29T13:48:28.500Z,12.73
2018-05-29T13:50:57.363Z,12.95
2018-05-29T13:53:26.230Z,13.80
2018-05-29T13:55:55.155Z,13.93
2018-05-29T13:58:23.988Z,13.00
2018-05-29T14:00:52.824Z,14.47
2018-05-29T14:03:21.681Z,13.88
2018-05-29T14:05:50.499Z,13.62
2018-05-29T14:08:19.367Z,13.93
2018-05-29T14:10:48.219Z,14.95
2018-05-29T14:13:17.062Z,14.63
2018-05-29T14:15:45.936Z,13.68
2018-05-29T14:18:14.785Z,12.80
2018-05-29T14:20:43.639Z,13.70
2018-05-29T14:23:12.461Z,13.48
2018-05-29T14:25:41.297Z,13.88
2018-05-29T14:28:10.130Z,12.60
2018-05-29T14:30:39.020Z,12.65
2018-05-29T14:33:07.888Z,12.37
2018-05-29T14:35:36.725Z,12.60
2018-05-29T14:38:05.577Z,12.55
2018-05-29T14:40:34.560Z,12.63
2018-05-29T14:43:03.460Z,13.13
2018-05-29T14:45:32.351Z,12.33
2018-05-29T14:48:01.223Z,13.68
2018-05-29T14:50:30.123Z,12.60
2018-05-29T14:52:59.005Z,11.80
2018-05-29T14:55:27.923Z,12.18
2018-05-29T14:57:56.954Z,11.70
2018-05-29T15:00:25.921Z,12.35
2018-05-29T15:02:54.867Z,11.05
2018-05-29T15:05:23.731Z,12.30
2018-05-29T15:07:52.745Z,12.20
2018-05-29T15:10:21.625Z,11.80
2018-05-29T15:12:50.499Z,11.97
2018-05-29T15:15:19.350Z,12.65
2018-05-29T15:17:48.212Z,13.30
2018-05-29T15:20:17.415Z,13.40
2018-05-29T15:22:46.241Z,14.10
2018-05-29T15:25:15.143Z,15.48
2018-05-29T15:27:44.059Z,15.50
2018-05-29T15:30:12.962Z,15.38
2018-05-29T15:32:41.796Z,15.35
2018-05-29T15:35:10.631Z,16.25
2018-05-29T15:37:39.904Z,14.98
2018-05-29T15:40:08.743Z,15.40
2018-05-29T15:42:37.625Z,15.95
2018-05-29T15:45:06.477Z,15.68
2018-05-29T15:47:35.333Z,16.82
2018-05-29T15:50:04.274Z,21.02
2018-05-29T15:52:33.109Z,25.72
2018-05-29T15:55:02.016Z,25.27
2018-05-29T15:57:30.856Z,34.13
2018-05-29T15:59:59.816Z,27.53
2018-05-29T16:02:28.598Z,48.25
2018-05-29T16:04:57.474Z,78.95
2018-05-29T16:07:26.304Z,18.93
2018-05-29T16:09:55.151Z,16.07
2018-05-29T16:12:24.043Z,12.00
2018-05-29T16:14:52.897Z,8.27
2018-05-29T16:17:21.754Z,9.27
2018-05-29T16:19:50.799Z,8.53
2018-05-29T16:22:19.648Z,9.93
2018-05-29T16:24:48.578Z,9.60
2018-05-29T16:27:17.474Z,9.67
2018-05-29T16:29:46.313Z,12.58
2018-05-29T16:32:15.183Z,11.47
2018-05-29T16:34:44.048Z,18.20
2018-05-29T16:37:12.853Z,21.57
2018-05-29T16:39:41.727Z,25.97
2018-05-29T16:42:10.568Z,25.67
2018-05-29T16:44:39.444Z,52.70
2018-05-29T16:47:08.330Z,32.17
2018-05-29T16:49:37.174Z,34.70
2018-05-29T16:52:06.044Z,34.67
2018-05-29T16:54:34.886Z,34.83
2018-05-29T16:57:03.770Z,39.33
2018-05-29T16:59:32.638Z,41.70
2018-05-29T17:02:01.475Z,39.77
2018-05-29T17:04:30.341Z,40.13
2018-05-29T17:06:59.215Z,39.97
2018-05-29T17:09:28.066Z,38.33
2018-05-29T17:11:56.909Z,37.83
2018-05-29T17:14:25.790Z,40.07
2018-05-29T17:16:54.641Z,34.43
2018-05-29T17:19:23.499Z,31.23
2018-05-29T17:21:52.420Z,26.60
2018-05-29T17:24:21.227Z,27.40
2018-05-29T17:26:50.074Z,22.43
2018-05-29T17:29:18.953Z,24.05
2018-05-29T17:31:47.800Z,20.90
2018-05-29T17:34:22.887Z,21.80
2018-05-29T17:36:51.718Z,19.83
2018-05-29T17:39:20.608Z,16.27
2018-05-29T17:41:49.441Z,17.92
2018-05-29T17:44:18.320Z,15.40
2018-05-29T17:46:47.181Z,14.97
2018-05-29T17:49:16.019Z,15.43
2018-05-29T17:51:44.892Z,16.85
2018-05-29T17:54:13.762Z,15.20
2018-05-29T17:56:42.766Z,15.77
2018-05-29T17:59:11.593Z,17.45
2018-05-29T18:01:40.461Z,16.53
2018-05-29T18:04:09.353Z,15.50
2018-05-29T18:06:38.234Z,17.07
2018-05-29T18:09:07.091Z,15.77
2018-05-29T18:11:35.977Z,16.70
2018-05-29T18:14:04.889Z,16.77
2018-05-29T18:16:33.759Z,17.93
2018-05-29T18:19:02.588Z,17.60
2018-05-29T18:21:31.467Z,17.23
2018-05-29T18:24:00.354Z,18.07
2018-05-29T18:26:29.236Z,17.77
2018-05-29T18:28:58.081Z,20.50
2018-05-29T18:31:26.984Z,20.15
2018-05-29T18:33:55.813Z,17.20
2018-05-29T18:36:24.671Z,17.37
2018-05-29T18:38:53.989Z,22.07
2018-05-29T18:41:23.188Z,18.27
2018-05-29T18:43:52.040Z,18.00
2018-05-29T18:46:20.907Z,18.73
2018-05-29T18:48:49.753Z,18.10
2018-05-29T18:51:18.654Z,18.53
2018-05-29T18:53:47.426Z,17.93
2018-05-29T18:56:16.270Z,18.57
2018-05-29T18:58:45.141Z,20.13
2018-05-29T19:01:14.021Z,19.20
2018-05-29T19:03:42.907Z,20.40
2018-05-29T19:06:11.743Z,20.23
2018-05-29T19:08:40.662Z,22.85
2018-05-29T19:11:09.532Z,20.07
2018-05-29T19:13:38.402Z,20.97
2018-05-29T19:16:07.261Z,20.00
2018-05-29T19:18:36.146Z,18.57
2018-05-29T19:21:05.060Z,87.53
2018-05-29T19:23:34.442Z,25.57
2018-05-29T19:26:03.254Z,19.63
2018-05-29T19:28:32.164Z,17.37
2018-05-29T19:31:01.052Z,17.43
2018-05-29T19:33:29.920Z,17.97
2018-05-29T19:35:58.943Z,18.37
2018-05-29T19:38:27.804Z,18.37
2018-05-29T19:40:56.668Z,20.80
2018-05-29T19:43:25.575Z,20.23
2018-05-29T19:45:56.414Z,20.33
2018-05-29T19:48:25.255Z,21.70
2018-05-29T19:50:54.153Z,24.95
2018-05-29T19:53:22.964Z,24.73
2018-05-29T19:55:51.797Z,22.83
2018-05-29T19:58:20.683Z,20.63
2018-05-29T20:00:49.611Z,23.70
2018-05-29T20:03:18.470Z,22.23
2018-05-29T20:05:47.365Z,23.60
2018-05-29T20:08:16.246Z,22.70
2018-05-29T20:10:45.142Z,22.87
2018-05-29T20:13:14.000Z,26.27
2018-05-29T20:15:42.870Z,24.70
2018-05-29T20:18:11.701Z,26.43
2018-05-29T20:20:40.569Z,26.47
2018-05-29T20:23:09.447Z,27.47
2018-05-29T20:25:38.290Z,31.02
2018-05-29T20:28:07.164Z,28.10
2018-05-29T20:30:36.146Z,27.27
2018-05-29T20:33:05.249Z,26.30
2018-05-29T20:35:34.152Z,27.53
2018-05-29T20:38:03.044Z,32.13
2018-05-29T20:40:31.910Z,33.95
2018-05-29T20:43:00.751Z,30.23
2018-05-29T20:45:29.600Z,32.17
2018-05-29T20:47:58.614Z,30.20
2018-05-29T20:50:27.475Z,31.07
2018-05-29T20:52:56.396Z,31.37
2018-05-29T20:55:25.339Z,32.73
2018-05-29T20:57:54.146Z,33.17
2018-05-29T21:00:23.055Z,33.67
2018-05-29T21:02:51.917Z,40.88
2018-05-29T21:05:20.761Z,40.83
2018-05-29T21:07:49.606Z,34.67
2018-05-29T21:10:18.476Z,34.23
2018-05-29T21:12:47.417Z,36.10
2018-05-29T21:15:16.362Z,36.60
2018-05-29T21:17:45.258Z,35.97
2018-05-29T21:20:14.131Z,35.93
2018-05-29T21:22:42.986Z,36.00
2018-05-29T21:25:11.851Z,37.30
2018-05-29T21:27:40.722Z,35.67
2018-05-29T21:30:09.562Z,35.40
2018-05-29T21:32:38.449Z,36.07
2018-05-29T21:35:07.346Z,36.90
2018-05-29T21:37:36.223Z,37.17
2018-05-29T21:40:05.080Z,37.57
2018-05-29T21:42:33.937Z,36.50
2018-05-29T21:45:02.797Z,44.50
2018-05-29T21:47:31.746Z,38.97
2018-05-29T21:50:00.647Z,37.70
2018-05-29T21:52:29.500Z,39.30
2018-05-29T21:54:58.357Z,46.30
2018-05-29T21:57:27.291Z,43.50
2018-05-29T21:59:56.250Z,43.67
2018-05-29T22:02:25.078Z,43.23
2018-05-29T22:04:54.025Z,44.67
2018-05-29T22:07:22.899Z,43.60
2018-05-29T22:09:51.785Z,43.33
2018-05-29T22:12:20.651Z,53.08
2018-05-29T22:14:49.520Z,44.30
2018-05-29T22:17:18.345Z,46.40
2018-05-29T22:19:47.210Z,47.43
2018-05-29T22:22:16.208Z,46.27
2018-05-29T22:24:45.053Z,45.80
2018-05-29T22:27:13.892Z,46.03
2018-05-29T22:29:42.749Z,46.73
2018-05-29T22:32:11.599Z,47.03
2018-05-29T22:34:40.426Z,46.47
2018-05-29T22:37:09.286Z,46.80
2018-05-29T22:39:38.177Z,46.43
2018-05-29T22:42:06.971Z,46.90
2018-05-29T22:44:35.813Z,46.00
2018-05-29T22:47:04.665Z,46.40
2018-05-29T22:49:33.547Z,46.77
2018-05-29T22:52:02.383Z,47.37
2018-05-29T22:54:31.246Z,47.70
2018-05-29T22:57:00.115Z,47.50
2018-05-29T22:59:28.956Z,47.60
2018-05-29T23:01:57.807Z,45.93
2018-05-29T23:04:26.654Z,45.73
2018-05-29T23:06:55.500Z,48.20
2018-05-29T23:09:24.333Z,46.33
2018-05-29T23:11:53.182Z,45.50
2018-05-29T23:14:22.013Z,46.80
2018-05-29T23:16:50.883Z,46.00
2018-05-29T23:19:19.723Z,46.00
2018-05-29T23:21:48.634Z,47.87
2018-05-29T23:24:17.484Z,45.20
2018-05-29T23:26:46.316Z,47.47
2018-05-29T23:29:15.180Z,45.90
2018-05-29T23:31:44.053Z,47.73
2018-05-29T23:34:12.894Z,46.67
2018-05-29T23:36:41.772Z,46.13
2018-05-29T23:39:10.640Z,45.83
2018-05-29T23:41:39.468Z,46.87
2018-05-29T23:44:08.332Z,46.83
2018-05-29T23:46:37.189Z,45.33
2018-05-29T23:49:06.043Z,44.40
2018-05-29T23:51:34.886Z,53.87
2018-05-29T23:54:03.724Z,45.80
2018-05-29T23:56:32.567Z,52.93
2018-05-29T23:59:01.478Z,46.33
